Time;durP1;ratioP1;P1;durP2;ratioP2;P2;SDS_P1;SDS_P2;PMS_P1;PMS_P2;Temp;Humidity;BMP_temperature;BMP_pressure;BME280_temperature;BME280_humidity;BME280_pressure;Samples;Min_cycle;Max_cycle;Signal;HPM_P1;HPM_P2
2022/12/04 00:01:36;;;;;;;;;;;;;;;4.91;75.06;102631.28;5088864;28;4504;-81
2022/12/04 00:04:02;;;;;;;;;;;;;;;4.97;75.11;102625.44;5089973;28;4508;-80
2022/12/04 00:06:29;;;;;;;;;;;;;;;4.89;75.01;102625.22;5073106;28;4661;-79
2022/12/04 00:08:56;;;;;;;;;;;;;;;4.91;74.97;102631.28;5087079;28;4653;-79
2022/12/04 00:11:22;;;;;;;;;;;;;;;4.97;74.86;102629.88;5096287;28;4730;-79
2022/12/04 00:13:49;;;;;;;;;;;;;;;5.00;75.16;102622.50;5095640;28;4603;-79
2022/12/04 00:16:15;;;;;;;;;;;;;;;4.97;75.15;102625.44;5079527;28;4492;-79
2022/12/04 00:18:42;;;;;;;;;;;;;;;5.05;74.94;102631.91;5092446;28;4578;-81
2022/12/04 00:21:08;;;;;;;;;;;;;;;5.02;75.10;102625.00;5094751;28;4594;-81
2022/12/04 00:23:35;;;;;;;;;;;;;;;4.93;75.32;102628.47;5095013;28;4951;-79
2022/12/04 00:26:01;;;;;;;;;;;;;;;5.06;75.19;102628.25;5097664;28;4578;-80
2022/12/04 00:28:28;;;;;;;;;;;;;;;5.03;74.90;102625.84;5091715;28;4542;-81
2022/12/04 00:30:54;;;;;;;;;;;;;;;4.98;75.51;102634.28;5072983;28;4660;-82
2022/12/04 00:33:21;;;;;;;;;;;;;;;4.95;75.15;102626.53;5079666;28;4580;-81
2022/12/04 00:35:47;;;;;;;;;;;;;;;4.90;75.51;102624.25;5095926;28;4534;-81
2022/12/04 00:38:14;;;;;;;;;;;;;;;4.95;75.16;102619.34;5084200;28;4602;-81
2022/12/04 00:40:41;;;;;;;;;;;;;;;4.95;75.17;102622.03;5093351;28;4567;-81
2022/12/04 00:43:07;;;;;;;;;;;;;;;4.97;75.06;102617.41;5091414;28;4678;-81
2022/12/04 00:45:34;;;;;;;;;;;;;;;5.05;74.74;102614.06;5093371;28;4588;-80
2022/12/04 00:48:00;;;;;;;;;;;;;;;4.96;75.00;102609.50;5076986;28;4656;-81
2022/12/04 00:50:27;;;;;;;;;;;;;;;5.07;74.62;102606.75;5080223;28;4463;-80
2022/12/04 00:52:55;;;;;;;;;;;;;;;5.08;74.63;102607.59;5090203;28;4510;-80
2022/12/04 00:55:21;;;;;;;;;;;;;;;5.00;75.20;102610.97;5096616;28;4666;-81
2022/12/04 00:57:48;;;;;;;;;;;;;;;5.03;75.13;102597.34;5095360;28;4547;-81
2022/12/04 01:00:14;;;;;;;;;;;;;;;5.01;74.92;102600.13;5078472;28;4470;-79
2022/12/04 01:02:41;;;;;;;;;;;;;;;5.05;74.58;102605.22;5093430;28;4707;-81
2022/12/04 01:05:07;;;;;;;;;;;;;;;5.08;74.66;102594.25;5094368;28;4620;-82
2022/12/04 01:07:34;;;;;;;;;;;;;;;5.06;74.78;102593.53;5091948;28;4445;-81
2022/12/04 01:10:00;;;;;;;;;;;;;;;5.02;75.19;102592.97;5098395;28;4464;-80
2022/12/04 01:12:27;;;;;;;;;;;;;;;4.97;75.34;102593.38;5092380;28;4500;-79
2022/12/04 01:14:54;;;;;;;;;;;;;;;4.97;75.42;102596.03;5094701;28;4513;-82
2022/12/04 01:17:20;;;;;;;;;;;;;;;5.01;75.56;102591.28;5075947;28;4524;-80
2022/12/04 01:19:47;;;;;;;;;;;;;;;5.04;74.89;102592.84;5089615;28;4467;-80
2022/12/04 01:22:13;;;;;;;;;;;;;;;5.00;74.95;102595.78;5112571;27;4574;-79
2022/12/04 01:24:40;;;;;;;;;;;;;;;4.93;75.53;102591.09;5074903;28;4462;-81
2022/12/04 01:27:06;;;;;;;;;;;;;;;4.94;75.28;102595.44;5092317;28;4607;-80
2022/12/04 01:29:33;;;;;;;;;;;;;;;4.99;75.26;102586.06;5086701;28;5186;-81
2022/12/04 01:31:59;;;;;;;;;;;;;;;5.01;75.07;102585.94;5092426;28;4681;-80
2022/12/04 01:34:26;;;;;;;;;;;;;;;5.06;74.88;102588.19;5092905;28;4603;-81
2022/12/04 01:36:52;;;;;;;;;;;;;;;4.94;75.39;102593.66;5095856;28;4793;-81
2022/12/04 01:39:19;;;;;;;;;;;;;;;5.00;75.38;102587.75;5074055;28;4662;-81
2022/12/04 01:41:45;;;;;;;;;;;;;;;5.02;75.02;102587.63;5092968;28;4579;-80
2022/12/04 01:44:12;;;;;;;;;;;;;;;5.01;75.09;102589.44;5080559;28;4566;-80
2022/12/04 01:46:39;;;;;;;;;;;;;;;4.96;75.41;102590.81;5069100;28;4697;-81
2022/12/04 01:49:05;;;;;;;;;;;;;;;4.96;75.28;102588.16;5079151;28;4610;-79
2022/12/04 01:51:32;;;;;;;;;;;;;;;4.98;75.34;102588.88;5096468;28;4454;-81
2022/12/04 01:53:58;;;;;;;;;;;;;;;4.91;75.74;102583.22;5096780;28;4531;-80
2022/12/04 01:56:25;;;;;;;;;;;;;;;4.90;76.15;102586.84;5081059;28;4467;-80
2022/12/04 01:58:51;;;;;;;;;;;;;;;4.99;75.18;102582.53;5089769;28;4491;-81
2022/12/04 02:01:18;;;;;;;;;;;;;;;4.97;75.28;102580.03;5080937;27;4554;-81
2022/12/04 02:03:44;;;;;;;;;;;;;;;5.03;74.69;102572.44;5077349;27;4591;-81
2022/12/04 02:06:11;;;;;;;;;;;;;;;4.99;75.36;102579.88;5065194;27;4408;-82
2022/12/04 02:08:37;;;;;;;;;;;;;;;4.98;75.19;102587.03;5079424;27;4515;-82
2022/12/04 02:11:04;;;;;;;;;;;;;;;4.94;75.43;102582.97;5069614;28;4470;-81
2022/12/04 02:13:30;;;;;;;;;;;;;;;4.93;75.45;102586.59;5065299;28;4341;-82
2022/12/04 02:15:57;;;;;;;;;;;;;;;4.97;75.25;102579.16;5080194;27;4597;-83
2022/12/04 02:18:24;;;;;;;;;;;;;;;5.01;74.76;102578.75;5064156;27;4438;-82
2022/12/04 02:20:50;;;;;;;;;;;;;;;5.00;74.93;102574.41;5064982;28;4444;-81
2022/12/04 02:23:17;;;;;;;;;;;;;;;5.05;75.20;102576.66;5080257;27;4596;-82
2022/12/04 02:25:46;;;;;;;;;;;;;;;5.09;74.80;102574.56;5092073;27;4643;-82
2022/12/04 02:28:13;;;;;;;;;;;;;;;5.06;74.75;102575.72;5080932;27;4293;-82
2022/12/04 02:30:39;;;;;;;;;;;;;;;5.07;75.27;102568.53;5081852;27;4453;-81
2022/12/04 02:33:06;;;;;;;;;;;;;;;5.08;75.31;102573.72;5078499;27;4485;-81
2022/12/04 02:35:32;;;;;;;;;;;;;;;5.03;74.96;102567.09;5079537;28;4485;-80
2022/12/04 02:37:59;;;;;;;;;;;;;;;4.98;75.59;102573.69;5077202;28;4508;-81
2022/12/04 02:40:25;;;;;;;;;;;;;;;5.01;75.60;102575.25;5080257;27;4646;-81
2022/12/04 02:42:52;;;;;;;;;;;;;;;5.05;74.96;102584.69;5095079;27;4754;-79
2022/12/04 02:45:18;;;;;;;;;;;;;;;5.04;74.97;102579.47;5091523;27;4467;-81
2022/12/04 02:47:45;;;;;;;;;;;;;;;5.04;75.35;102575.00;5084862;27;3648;-80
2022/12/04 02:50:12;;;;;;;;;;;;;;;5.15;74.59;102577.56;5079442;27;4569;-80
2022/12/04 02:52:38;;;;;;;;;;;;;;;5.13;74.76;102574.19;5063996;28;4709;-81
2022/12/04 02:55:05;;;;;;;;;;;;;;;5.08;75.43;102570.22;5062826;28;4415;-82
2022/12/04 02:57:31;;;;;;;;;;;;;;;5.14;74.48;102575.00;5080135;28;4503;-79
2022/12/04 02:59:58;;;;;;;;;;;;;;;5.14;75.07;102570.50;5087096;28;4505;-81
2022/12/04 03:02:25;;;;;;;;;;;;;;;5.24;74.26;102565.22;5078836;28;4384;-82
2022/12/04 03:04:51;;;;;;;;;;;;;;;5.22;74.49;102576.03;5078028;28;4601;-81
2022/12/04 03:07:18;;;;;;;;;;;;;;;5.22;74.59;102570.69;5083657;28;3676;-81
2022/12/04 03:09:44;;;;;;;;;;;;;;;5.24;74.68;102567.91;5082321;28;4783;-80
2022/12/04 03:12:11;;;;;;;;;;;;;;;5.21;74.86;102569.00;5091935;28;4754;-80
2022/12/04 03:14:37;;;;;;;;;;;;;;;5.21;74.58;102571.69;5086996;28;4710;-80
2022/12/04 03:17:04;;;;;;;;;;;;;;;5.20;74.44;102572.63;5060675;28;5064;-80
2022/12/04 03:19:30;;;;;;;;;;;;;;;5.21;74.68;102574.34;5080899;28;4560;-81
2022/12/04 03:21:57;;;;;;;;;;;;;;;5.11;74.92;102575.28;5079953;28;4527;-81
2022/12/04 03:24:23;;;;;;;;;;;;;;;5.18;74.72;102571.94;5082957;28;5038;-79
2022/12/04 03:26:50;;;;;;;;;;;;;;;5.33;74.47;102575.09;5062283;28;4541;-80
2022/12/04 03:29:16;;;;;;;;;;;;;;;5.30;74.41;102575.38;5077486;28;4441;-81
2022/12/04 03:31:43;;;;;;;;;;;;;;;5.35;74.08;102572.28;5081121;28;4334;-80
2022/12/04 03:34:10;;;;;;;;;;;;;;;5.32;74.68;102576.06;5079158;28;4563;-79
2022/12/04 03:36:36;;;;;;;;;;;;;;;5.28;74.29;102568.47;5086466;28;4346;-80
2022/12/04 03:39:03;;;;;;;;;;;;;;;5.31;74.43;102569.03;5088620;28;5109;-80
2022/12/04 03:41:30;;;;;;;;;;;;;;;5.32;74.24;102568.03;5088881;28;4622;-80
2022/12/04 03:43:56;;;;;;;;;;;;;;;5.41;74.57;102566.38;5083246;27;4407;-80
2022/12/04 03:46:23;;;;;;;;;;;;;;;5.38;74.14;102567.53;5065724;28;4657;-79
2022/12/04 03:48:49;;;;;;;;;;;;;;;5.50;73.68;102567.38;5084834;27;4465;-80
2022/12/04 03:51:16;;;;;;;;;;;;;;;5.30;74.87;102567.34;5083174;27;4539;-79
2022/12/04 03:53:43;;;;;;;;;;;;;;;5.41;73.85;102563.72;5083531;27;4621;-80
2022/12/04 03:56:10;;;;;;;;;;;;;;;5.35;74.35;102570.44;5086922;27;3822;-81
2022/12/04 03:58:36;;;;;;;;;;;;;;;5.47;73.74;102573.84;5081497;27;4520;-80
2022/12/04 04:01:04;;;;;;;;;;;;;;;5.41;74.24;102563.72;5063101;28;4446;-81
2022/12/04 04:03:31;;;;;;;;;;;;;;;5.50;74.12;102567.38;5085376;28;4443;-81
2022/12/04 04:05:57;;;;;;;;;;;;;;;5.42;73.88;102570.75;5082248;27;4514;-80
2022/12/04 04:08:29;;;;;;;;;;;;;;;5.52;73.63;102568.94;5067840;27;4454;-80
2022/12/04 04:10:56;;;;;;;;;;;;;;;5.45;74.15;102570.50;5070975;28;5104;-80
2022/12/04 04:24:22;;;;;;;;;;;;;;;5.50;73.52;102573.59;5084642;27;4398;-80
2022/12/04 04:26:48;;;;;;;;;;;;;;;5.61;73.66;102573.47;5082001;27;4424;-80
2022/12/04 04:29:15;;;;;;;;;;;;;;;4.94;74.17;102492.16;5079740;27;4560;-79
2022/12/04 04:31:41;;;;;;;;;;;;;;;5.53;73.79;102575.13;5097343;27;4456;-79
2022/12/04 04:34:08;;;;;;;;;;;;;;;5.52;73.80;102584.97;5064485;28;4598;-78
2022/12/04 04:36:34;;;;;;;;;;;;;;;5.56;73.92;102582.88;5080434;27;4456;-79
2022/12/04 04:39:01;;;;;;;;;;;;;;;5.57;73.96;102588.09;5083150;27;4703;-78
2022/12/04 04:41:28;;;;;;;;;;;;;;;5.54;73.53;102587.53;5080446;27;4428;-81
2022/12/04 04:43:54;;;;;;;;;;;;;;;5.57;73.63;102580.06;5085381;27;4527;-80
2022/12/04 04:46:21;;;;;;;;;;;;;;;5.50;74.67;102581.63;5063958;27;4377;-80
2022/12/04 04:48:47;;;;;;;;;;;;;;;5.55;73.98;102579.34;5081494;27;4528;-81
2022/12/04 04:51:14;;;;;;;;;;;;;;;5.50;74.05;102575.41;5089018;27;4606;-79
2022/12/04 04:53:40;;;;;;;;;;;;;;;5.54;73.59;102577.69;5079135;27;4615;-80
2022/12/04 04:56:07;;;;;;;;;;;;;;;5.56;74.01;102580.19;5081289;27;4253;-79
2022/12/04 04:58:34;;;;;;;;;;;;;;;5.70;73.26;102580.66;5082283;27;4826;-78
2022/12/04 05:01:00;;;;;;;;;;;;;;;5.56;74.33;102575.72;5080817;27;4529;-79
2022/12/04 05:03:27;;;;;;;;;;;;;;;5.50;74.69;102583.41;5085013;27;4400;-80
2022/12/04 05:05:53;;;;;;;;;;;;;;;5.53;73.86;102572.44;5081771;27;4543;-80
2022/12/04 05:08:20;;;;;;;;;;;;;;;5.54;74.06;102575.00;5083992;27;4562;-81
2022/12/04 05:10:46;;;;;;;;;;;;;;;5.72;73.23;102577.00;5082839;27;5238;-80
2022/12/04 05:13:13;;;;;;;;;;;;;;;5.55;73.91;102570.50;5080945;27;4410;-80
2022/12/04 05:15:39;;;;;;;;;;;;;;;5.58;73.58;102572.91;5080777;27;4442;-80
2022/12/04 05:18:06;;;;;;;;;;;;;;;5.53;74.11;102573.31;5079560;27;4211;-80
2022/12/04 05:20:31;;;;;;;;;;;;;;;5.57;74.05;102571.22;5086478;28;4449;-81
2022/12/04 05:22:58;;;;;;;;;;;;;;;5.53;74.06;102576.00;5082257;27;4536;-79
2022/12/04 05:25:24;;;;;;;;;;;;;;;5.50;74.00;102578.06;5092373;27;4496;-78
2022/12/04 05:27:51;;;;;;;;;;;;;;;5.61;73.92;102577.97;5083306;27;4227;-82
2022/12/04 05:30:17;;;;;;;;;;;;;;;5.57;73.76;102576.56;5078812;27;4559;-81
2022/12/04 05:32:44;;;;;;;;;;;;;;;5.62;73.51;102583.19;5070148;27;4458;-80
2022/12/04 05:35:10;;;;;;;;;;;;;;;5.63;73.72;102584.03;5084452;27;4401;-79
2022/12/04 05:37:37;;;;;;;;;;;;;;;5.58;73.85;102568.38;5064936;28;4259;-82
2022/12/04 05:40:03;;;;;;;;;;;;;;;5.59;74.06;102575.44;5063618;27;4312;-81
2022/12/04 05:42:30;;;;;;;;;;;;;;;5.58;73.57;102581.75;5081255;27;4499;-80
2022/12/04 05:44:57;;;;;;;;;;;;;;;5.55;74.08;102581.19;5080969;27;4440;-80
2022/12/04 05:47:23;;;;;;;;;;;;;;;5.53;73.67;102589.38;5082894;27;4438;-79
2022/12/04 05:49:50;;;;;;;;;;;;;;;5.56;73.80;102586.41;5061738;28;4454;-79
2022/12/04 05:52:16;;;;;;;;;;;;;;;5.41;74.34;102588.63;5085019;27;4483;-79
2022/12/04 05:54:43;;;;;;;;;;;;;;;5.46;74.49;102580.19;5075857;28;4630;-82
2022/12/04 05:57:09;;;;;;;;;;;;;;;5.51;73.83;102588.66;5089841;28;4397;-80
2022/12/04 05:59:36;;;;;;;;;;;;;;;5.52;73.87;102592.16;5093046;28;4547;-79
2022/12/04 06:02:02;;;;;;;;;;;;;;;5.50;74.15;102594.13;5075907;28;4491;-80
2022/12/04 06:04:29;;;;;;;;;;;;;;;5.59;73.93;102593.28;5065402;28;3728;-80
2022/12/04 06:06:55;;;;;;;;;;;;;;;5.52;73.57;102598.34;5080355;27;4392;-80
2022/12/04 06:09:22;;;;;;;;;;;;;;;5.37;74.68;102597.03;5080381;27;4496;-78
2022/12/04 06:11:48;;;;;;;;;;;;;;;5.42;74.39;102592.97;5064815;28;4607;-80
2022/12/04 06:14:15;;;;;;;;;;;;;;;5.43;73.89;102591.16;5060745;28;4591;-78
2022/12/04 06:16:42;;;;;;;;;;;;;;;5.47;74.16;102595.22;5095902;27;4535;-79
2022/12/04 06:19:08;;;;;;;;;;;;;;;5.38;74.39;102588.91;5078698;27;4557;-79
2022/12/04 06:21:35;;;;;;;;;;;;;;;5.36;74.50;102582.00;5080662;27;4571;-81
2022/12/04 06:24:01;;;;;;;;;;;;;;;5.39;74.74;102592.41;5081769;27;4507;-80
2022/12/04 06:26:28;;;;;;;;;;;;;;;5.44;74.48;102590.16;5091598;27;4555;-80
2022/12/04 06:28:55;;;;;;;;;;;;;;;5.42;74.25;102587.63;5081011;27;4507;-80
2022/12/04 06:31:22;;;;;;;;;;;;;;;4.93;74.09;102514.50;5093304;27;4535;-78
2022/12/04 06:33:48;;;;;;;;;;;;;;;5.46;74.18;102598.91;5060206;28;4582;-79
2022/12/04 06:36:15;;;;;;;;;;;;;;;5.38;74.75;102596.03;5081202;27;4491;-79
2022/12/04 06:38:41;;;;;;;;;;;;;;;5.42;74.48;102601.00;5078146;28;4471;-81
2022/12/04 06:41:08;;;;;;;;;;;;;;;5.44;74.29;102600.84;5086995;28;4461;-80
2022/12/04 06:43:34;;;;;;;;;;;;;;;5.47;74.22;102589.88;5088408;28;4804;-80
2022/12/04 06:46:01;;;;;;;;;;;;;;;5.36;74.69;102606.06;5082416;28;4709;-80
2022/12/04 06:48:28;;;;;;;;;;;;;;;5.36;74.51;102601.53;5082667;28;4463;-79
2022/12/04 06:50:54;;;;;;;;;;;;;;;5.37;74.53;102603.22;5075636;27;4436;-80
2022/12/04 06:53:21;;;;;;;;;;;;;;;5.29;74.94;102604.88;5080435;27;4412;-80
2022/12/04 06:55:48;;;;;;;;;;;;;;;5.32;75.03;102599.25;5094430;27;4515;-79
2022/12/04 06:58:15;;;;;;;;;;;;;;;5.26;75.52;102606.00;5078237;28;4282;-80
2022/12/04 07:00:41;;;;;;;;;;;;;;;5.37;74.94;102603.22;5081010;28;4523;-78
2022/12/04 07:03:08;;;;;;;;;;;;;;;5.36;74.45;102609.56;5093951;27;4440;-81
2022/12/04 07:05:34;;;;;;;;;;;;;;;5.43;74.48;102605.34;5080275;28;4532;-79
2022/12/04 07:08:01;;;;;;;;;;;;;;;5.36;74.67;102611.41;5064613;28;4478;-79
2022/12/04 07:10:27;;;;;;;;;;;;;;;5.42;74.32;102610.84;5078352;28;4484;-80
2022/12/04 07:12:54;;;;;;;;;;;;;;;5.44;74.48;102612.41;5083347;28;4498;-80
2022/12/04 07:15:20;;;;;;;;;;;;;;;5.41;74.49;102607.34;5075796;28;4532;-79
2022/12/04 07:17:47;;;;;;;;;;;;;;;5.41;74.74;102609.13;5082113;28;4314;-79
2022/12/04 07:20:13;;;;;;;;;;;;;;;5.38;74.53;102604.94;5084598;27;4442;-80
2022/12/04 07:22:40;;;;;;;;;;;;;;;5.38;74.54;102618.28;5084389;27;4410;-79
2022/12/04 07:25:06;;;;;;;;;;;;;;;5.35;74.82;102607.84;5088035;27;4513;-80
2022/12/04 07:27:33;;;;;;;;;;;;;;;5.23;75.09;102604.47;5070008;28;4972;-80
2022/12/04 07:30:00;;;;;;;;;;;;;;;5.31;74.75;102611.78;5082738;27;4474;-81
2022/12/04 07:32:26;;;;;;;;;;;;;;;5.33;74.76;102609.84;5080949;27;4340;-79
2022/12/04 07:34:53;;;;;;;;;;;;;;;5.31;74.86;102605.59;5098826;27;4529;-80
2022/12/04 07:37:19;;;;;;;;;;;;;;;5.38;74.92;102598.72;5097053;28;4460;-79
2022/12/04 07:39:46;;;;;;;;;;;;;;;5.37;74.76;102605.06;5109558;27;4463;-80
2022/12/04 07:42:12;;;;;;;;;;;;;;;5.39;74.76;102613.78;5095663;28;4710;-81
2022/12/04 07:44:39;;;;;;;;;;;;;;;5.33;74.96;102611.66;5075856;28;4524;-78
2022/12/04 07:47:05;;;;;;;;;;;;;;;5.31;74.73;102610.94;5098139;28;5119;-80
2022/12/04 07:49:32;;;;;;;;;;;;;;;5.30;75.12;102614.59;5097911;28;4571;-79
2022/12/04 07:51:58;;;;;;;;;;;;;;;5.31;74.59;102614.44;5098101;28;5038;-79
2022/12/04 07:54:25;;;;;;;;;;;;;;;5.22;75.45;102612.59;5095165;28;4582;-79
2022/12/04 07:56:51;;;;;;;;;;;;;;;5.21;75.24;102611.75;5112812;27;4523;-80
2022/12/04 07:59:18;;;;;;;;;;;;;;;5.28;75.51;102612.06;5096582;28;4611;-79
2022/12/04 08:01:45;;;;;;;;;;;;;;;5.26;75.15;102611.34;5092638;28;4719;-80
2022/12/04 08:04:11;;;;;;;;;;;;;;;5.20;75.22;102612.72;5081032;28;4513;-79
2022/12/04 08:06:38;;;;;;;;;;;;;;;5.23;75.39;102606.25;5093538;28;4628;-80
2022/12/04 08:09:04;;;;;;;;;;;;;;;5.24;75.07;102616.00;5094793;28;4937;-80
2022/12/04 08:11:31;;;;;;;;;;;;;;;5.23;75.05;102617.81;5105787;27;4618;-76
2022/12/04 08:13:57;;;;;;;;;;;;;;;5.25;74.86;102609.66;5092102;28;4713;-81
2022/12/04 08:16:24;;;;;;;;;;;;;;;5.29;74.92;102615.56;5092412;28;4468;-80
2022/12/04 08:18:51;;;;;;;;;;;;;;;5.21;75.38;102605.56;5095134;28;4552;-79
2022/12/04 08:21:18;;;;;;;;;;;;;;;5.18;75.37;102620.03;5093090;28;4572;-77
2022/12/04 08:23:44;;;;;;;;;;;;;;;5.23;75.63;102625.84;5074241;28;4688;-79
2022/12/04 08:26:11;;;;;;;;;;;;;;;5.19;75.13;102623.56;5089600;28;4658;-81
2022/12/04 08:28:37;;;;;;;;;;;;;;;5.18;75.42;102625.38;5094963;28;4975;-80
2022/12/04 08:31:04;;;;;;;;;;;;;;;5.20;75.16;102617.22;5077837;28;4456;-78
2022/12/04 08:33:31;;;;;;;;;;;;;;;5.21;75.13;102627.78;5090858;27;4459;-79
2022/12/04 08:35:57;;;;;;;;;;;;;;;5.28;75.01;102625.41;5095517;28;4486;-79
2022/12/04 08:38:24;;;;;;;;;;;;;;;5.20;75.29;102623.41;5092227;28;4985;-80
2022/12/04 08:40:50;;;;;;;;;;;;;;;5.25;74.85;102633.69;5092387;28;4553;-79
2022/12/04 08:43:17;;;;;;;;;;;;;;;5.27;75.23;102634.41;5094394;28;4564;-78
2022/12/04 08:45:44;;;;;;;;;;;;;;;5.20;75.41;102625.22;5079401;28;4719;-79
2022/12/04 08:48:10;;;;;;;;;;;;;;;5.17;75.34;102629.00;5083262;28;4738;-78
2022/12/04 08:50:37;;;;;;;;;;;;;;;5.14;75.60;102625.78;5097433;28;3112;-79
2022/12/04 08:53:03;;;;;;;;;;;;;;;5.24;75.43;102629.34;5091071;28;4448;-80
2022/12/04 08:55:30;;;;;;;;;;;;;;;5.21;75.73;102627.78;5105569;27;4647;-79
2022/12/04 08:57:56;;;;;;;;;;;;;;;5.24;74.92;102629.34;5077546;28;4625;-79
2022/12/04 09:00:24;;;;;;;;;;;;;;;5.31;74.64;102637.66;5109390;27;4730;-78
2022/12/04 09:02:51;;;;;;;;;;;;;;;5.29;75.16;102634.28;5061373;28;4543;-79
2022/12/04 09:05:17;;;;;;;;;;;;;;;5.24;75.14;102645.38;5082408;27;4135;-79
2022/12/04 09:07:44;;;;;;;;;;;;;;;5.29;74.82;102639.63;5082944;27;4634;-80
2022/12/04 09:10:10;;;;;;;;;;;;;;;5.22;75.13;102639.31;5064732;28;5068;-79
2022/12/04 09:12:37;;;;;;;;;;;;;;;5.35;74.66;102639.91;5086605;27;4595;-79
2022/12/04 09:15:03;;;;;;;;;;;;;;;5.31;75.26;102649.19;5081884;27;4563;-80
2022/12/04 09:17:30;;;;;;;;;;;;;;;5.28;74.75;102644.13;5097901;27;4608;-79
2022/12/04 09:19:56;;;;;;;;;;;;;;;5.28;74.96;102649.47;5084088;27;5154;-79
2022/12/04 09:22:23;;;;;;;;;;;;;;;5.23;75.11;102638.31;5094701;28;4581;-79
2022/12/04 09:24:50;;;;;;;;;;;;;;;5.29;75.17;102636.94;5083663;28;4648;-77
2022/12/04 09:27:17;;;;;;;;;;;;;;;5.40;74.94;102634.19;5091002;27;4612;-78
2022/12/04 09:29:43;;;;;;;;;;;;;;;5.38;74.79;102639.69;5067335;28;4513;-79
2022/12/04 09:32:09;;;;;;;;;;;;;;;5.31;74.71;102635.84;5057570;27;4630;-78
2022/12/04 09:34:36;;;;;;;;;;;;;;;5.30;74.76;102641.31;5079324;27;4477;-80
2022/12/04 09:37:03;;;;;;;;;;;;;;;5.49;74.36;102629.84;5081923;27;5018;-79
2022/12/04 09:39:29;;;;;;;;;;;;;;;5.40;74.64;102634.19;5080333;27;4702;-79
2022/12/04 09:41:56;;;;;;;;;;;;;;;5.31;75.45;102632.31;5079958;27;4587;-79
2022/12/04 09:44:22;;;;;;;;;;;;;;;5.41;74.72;102622.50;5086703;27;4599;-79
2022/12/04 09:46:49;;;;;;;;;;;;;;;5.43;74.13;102624.06;5060990;27;4639;-79
2022/12/04 09:49:15;;;;;;;;;;;;;;;5.45;74.35;102634.63;5083298;27;4308;-79
2022/12/04 09:51:42;;;;;;;;;;;;;;;5.35;74.79;102636.41;5082401;27;5048;-79
2022/12/04 09:54:08;;;;;;;;;;;;;;;5.45;74.16;102631.97;5080496;27;4620;-80
2022/12/04 09:56:35;;;;;;;;;;;;;;;5.43;74.60;102633.91;5082895;27;5198;-79
2022/12/04 09:59:01;;;;;;;;;;;;;;;5.42;74.47;102632.22;5078929;28;4305;-79
2022/12/04 10:01:28;;;;;;;;;;;;;;;5.46;74.63;102625.63;5081128;27;4622;-79
2022/12/04 10:03:54;;;;;;;;;;;;;;;5.37;74.71;102621.94;5084790;28;4580;-79
2022/12/04 10:06:21;;;;;;;;;;;;;;;5.35;74.87;102621.22;5079606;28;4508;-80
2022/12/04 10:08:48;;;;;;;;;;;;;;;5.42;74.69;102617.03;5093340;28;4638;-79
2022/12/04 10:11:14;;;;;;;;;;;;;;;5.45;74.83;102622.09;5069636;28;4486;-79
2022/12/04 10:13:41;;;;;;;;;;;;;;;5.34;74.97;102614.19;5064586;28;4437;-78
2022/12/04 10:16:07;;;;;;;;;;;;;;;5.45;74.71;102621.28;5079996;27;4356;-78
2022/12/04 10:18:34;;;;;;;;;;;;;;;5.42;75.00;102621.53;5081770;27;4519;-79
2022/12/04 10:21:00;;;;;;;;;;;;;;;5.51;74.28;102622.56;5083650;27;4494;-78
2022/12/04 10:23:27;;;;;;;;;;;;;;;5.55;74.33;102619.44;5067699;28;4368;-79
2022/12/04 10:25:53;;;;;;;;;;;;;;;5.50;74.34;102626.19;5082702;27;4555;-80
2022/12/04 10:28:20;;;;;;;;;;;;;;;5.53;74.52;102617.91;5062601;28;4856;-79
2022/12/04 10:30:46;;;;;;;;;;;;;;;5.50;74.50;102619.03;5077326;27;4630;-80
2022/12/04 10:33:13;;;;;;;;;;;;;;;5.53;74.23;102610.75;5081913;28;4635;-81
2022/12/04 10:35:39;;;;;;;;;;;;;;;5.46;74.41;102621.13;5077324;27;4495;-80
2022/12/04 10:38:06;;;;;;;;;;;;;;;5.56;73.96;102622.97;5084036;28;4567;-80
2022/12/04 10:40:32;;;;;;;;;;;;;;;5.55;74.12;102614.09;5089239;28;4681;-79
2022/12/04 10:42:59;;;;;;;;;;;;;;;5.43;74.42;102615.19;5088463;28;5014;-79
2022/12/04 10:45:26;;;;;;;;;;;;;;;5.39;74.52;102614.63;5092258;28;4698;-81
2022/12/04 10:47:53;;;;;;;;;;;;;;;5.43;74.51;102613.38;5064397;28;4519;-79
2022/12/04 10:50:19;;;;;;;;;;;;;;;5.52;74.67;102613.53;5093362;27;4448;-81
2022/12/04 10:52:46;;;;;;;;;;;;;;;5.45;74.29;102603.41;5101019;28;3900;-80
2022/12/04 10:55:12;;;;;;;;;;;;;;;5.48;74.59;102610.31;5097871;28;4342;-80
2022/12/04 10:57:39;;;;;;;;;;;;;;;5.38;74.81;102606.75;5099873;28;4375;-79
2022/12/04 11:00:06;;;;;;;;;;;;;;;5.44;74.80;102606.19;5087421;28;3773;-80
2022/12/04 11:02:32;;;;;;;;;;;;;;;5.32;75.17;102600.09;5093227;28;4457;-81
2022/12/04 11:05:00;;;;;;;;;;;;;;;5.37;74.84;102602.38;5113323;27;4508;-80
2022/12/04 11:07:27;;;;;;;;;;;;;;;5.40;75.15;102596.78;5077591;28;4360;-80
2022/12/04 11:09:53;;;;;;;;;;;;;;;5.43;75.05;102601.84;5109066;28;4548;-79
2022/12/04 11:12:20;;;;;;;;;;;;;;;5.36;74.77;102598.03;5090554;28;4480;-80
2022/12/04 11:14:47;;;;;;;;;;;;;;;5.36;74.84;102590.84;5066229;28;4511;-80
2022/12/04 11:17:13;;;;;;;;;;;;;;;5.35;74.79;102593.66;5096144;28;4412;-79
2022/12/04 11:19:40;;;;;;;;;;;;;;;5.36;74.77;102590.84;5103303;28;4552;-79
2022/12/04 11:22:06;;;;;;;;;;;;;;;5.34;74.92;102599.97;5088833;28;4551;-81
2022/12/04 11:24:33;;;;;;;;;;;;;;;5.34;74.66;102594.63;5067446;28;5067;-79
2022/12/04 11:26:59;;;;;;;;;;;;;;;5.33;75.17;102599.16;5074991;28;4597;-79
2022/12/04 11:29:26;;;;;;;;;;;;;;;5.31;75.15;102595.75;5106035;28;5122;-79
2022/12/04 11:31:53;;;;;;;;;;;;;;;5.36;75.11;102590.00;5077216;28;4626;-80
2022/12/04 11:34:19;;;;;;;;;;;;;;;5.31;75.31;102592.25;5077713;28;4603;-81
2022/12/04 11:36:46;;;;;;;;;;;;;;;5.43;74.66;102592.00;5091433;28;4556;-80
2022/12/04 11:39:14;;;;;;;;;;;;;;;5.29;75.40;102587.00;5105434;28;5184;-79
2022/12/04 11:41:40;;;;;;;;;;;;;;;5.31;75.31;102587.72;5106513;28;4427;-79
2022/12/04 11:44:07;;;;;;;;;;;;;;;5.36;74.93;102582.84;5091215;28;4511;-79
2022/12/04 11:46:33;;;;;;;;;;;;;;;5.31;75.25;102586.91;5086824;28;4595;-79
2022/12/04 11:49:02;;;;;;;;;;;;;;;5.32;75.00;102577.88;5097617;28;4569;-80
2022/12/04 11:51:28;;;;;;;;;;;;;;;5.27;75.39;102577.47;5092185;28;4615;-79
2022/12/04 11:53:55;;;;;;;;;;;;;;;5.26;75.58;102579.28;5110617;28;4739;-80
2022/12/04 11:56:21;;;;;;;;;;;;;;;5.24;75.29;102582.09;5109585;28;4731;-80
2022/12/04 11:58:48;;;;;;;;;;;;;;;5.29;75.23;102584.34;5106708;28;4598;-80
2022/12/04 12:01:14;;;;;;;;;;;;;;;5.28;75.15;102584.50;5110199;28;4642;-78
2022/12/04 12:03:41;;;;;;;;;;;;;;;5.27;75.57;102585.50;5073040;28;4695;-80
2022/12/04 12:06:07;;;;;;;;;;;;;;;5.24;75.85;102583.94;5094825;28;4495;-80
2022/12/04 12:08:34;;;;;;;;;;;;;;;5.30;75.11;102586.06;5113206;27;4503;-80
2022/12/04 12:11:01;;;;;;;;;;;;;;;5.28;75.26;102587.16;5113063;27;4837;-79
2022/12/04 12:13:27;;;;;;;;;;;;;;;5.29;75.29;102588.84;5120282;28;4808;-78
2022/12/04 12:15:54;;;;;;;;;;;;;;;5.30;75.45;102588.72;5094736;28;4595;-80
2022/12/04 12:18:20;;;;;;;;;;;;;;;5.34;75.05;102586.63;5097786;28;4685;-78
2022/12/04 12:20:47;;;;;;;;;;;;;;;5.30;75.24;102588.72;5111809;27;4711;-80
2022/12/04 12:23:13;;;;;;;;;;;;;;;5.34;75.15;102587.47;5092877;28;4534;-80
2022/12/04 12:25:40;;;;;;;;;;;;;;;5.34;75.32;102589.28;5112694;27;4426;-80
2022/12/04 12:28:06;;;;;;;;;;;;;;;5.32;75.29;102585.91;5082914;28;4488;-79
2022/12/04 12:30:33;;;;;;;;;;;;;;;5.35;75.30;102583.81;5084178;28;4581;-80
2022/12/04 12:32:59;;;;;;;;;;;;;;;5.40;74.95;102578.91;5095826;28;4759;-80
2022/12/04 12:35:26;;;;;;;;;;;;;;;5.34;74.84;102587.47;5095129;28;4644;-79
2022/12/04 12:37:52;;;;;;;;;;;;;;;5.36;75.18;102574.81;5112811;27;4538;-79
2022/12/04 12:40:19;;;;;;;;;;;;;;;5.31;75.21;102573.53;5096224;28;4611;-79
2022/12/04 12:42:46;;;;;;;;;;;;;;;5.31;75.24;102570.88;5107015;27;5088;-79
2022/12/04 12:45:12;;;;;;;;;;;;;;;5.25;75.58;102564.22;5098235;28;4649;-79
2022/12/04 12:47:39;;;;;;;;;;;;;;;5.28;75.23;102576.47;5093920;28;4599;-79
2022/12/04 12:50:05;;;;;;;;;;;;;;;5.38;74.84;102578.22;5098190;28;4725;-79
2022/12/04 12:52:32;;;;;;;;;;;;;;;5.32;75.26;102578.72;5112650;27;4894;-79
2022/12/04 12:54:59;;;;;;;;;;;;;;;5.31;75.31;102570.88;5094930;28;4705;-79
2022/12/04 12:57:25;;;;;;;;;;;;;;;5.41;74.94;102575.25;5113386;27;5060;-80
2022/12/04 12:59:52;;;;;;;;;;;;;;;5.49;74.51;102576.41;5077951;28;5067;-79
2022/12/04 13:02:18;;;;;;;;;;;;;;;5.33;75.36;102569.75;5079463;28;4693;-80
2022/12/04 13:04:45;;;;;;;;;;;;;;;5.28;75.95;102561.28;5113619;27;4632;-80